Time;durP1;ratioP1;P1;durP2;ratioP2;P2;SDS_P1;SDS_P2;PMS_P1;PMS_P2;Temp;Humidity;BMP_temperature;BMP_pressure;BME280_temperature;BME280_humidity;BME280_pressure;Samples;Min_cycle;Max_cycle;Signal;HPM_P1;HPM_P2
2024/02/24 00:00:17;;;;;;;10.65;4.57;;;9.10;99.90;;;;;;5049524;28;20021;-89
2024/02/24 00:02:43;;;;;;;9.68;4.45;;;9.10;99.90;;;;;;5041728;28;20083;-90
2024/02/24 00:05:08;;;;;;;16.08;4.68;;;9.10;99.90;;;;;;5046493;28;20056;-89
2024/02/24 00:07:34;;;;;;;12.55;4.05;;;9.10;99.90;;;;;;5044090;28;20017;-89
2024/02/24 00:09:59;;;;;;;16.92;4.70;;;9.10;99.90;;;;;;5032445;28;20025;-89
2024/02/24 00:12:25;;;;;;;12.90;4.65;;;9.10;99.90;;;;;;5036949;28;20084;-87
2024/02/24 00:14:51;;;;;;;14.20;4.82;;;9.20;99.90;;;;;;5042329;28;20017;-88
2024/02/24 00:17:17;;;;;;;10.75;4.72;;;9.10;99.90;;;;;;5039219;28;20104;-89
2024/02/24 00:19:42;;;;;;;7.22;3.80;;;9.10;99.90;;;;;;5040834;28;20013;-88
2024/02/24 00:22:08;;;;;;;10.73;4.18;;;9.10;99.90;;;;;;5031575;28;20049;-89
2024/02/24 00:24:33;;;;;;;11.40;5.07;;;9.10;99.90;;;;;;5034642;28;20021;-89
2024/02/24 00:26:59;;;;;;;10.23;4.90;;;9.10;99.90;;;;;;5029688;28;20025;-89
2024/02/24 00:29:24;;;;;;;7.78;3.88;;;9.10;99.90;;;;;;5035866;28;20017;-88
2024/02/24 00:31:50;;;;;;;12.00;3.92;;;9.10;99.90;;;;;;5041670;28;20044;-89
2024/02/24 00:34:15;;;;;;;6.93;4.60;;;9.10;99.90;;;;;;5042471;28;20032;-89
2024/02/24 00:36:41;;;;;;;9.82;4.40;;;9.10;99.90;;;;;;5049266;28;20191;-89
2024/02/24 00:39:07;;;;;;;6.13;4.13;;;9.10;99.90;;;;;;5039142;28;20468;-90
2024/02/24 00:41:32;;;;;;;9.35;3.92;;;9.10;99.90;;;;;;5059045;28;20610;-89
2024/02/24 00:43:58;;;;;;;8.00;3.55;;;9.10;99.90;;;;;;5044149;28;20048;-89
2024/02/24 00:46:23;;;;;;;6.85;3.75;;;9.10;99.90;;;;;;5020290;28;20361;-90
2024/02/24 00:48:49;;;;;;;6.97;3.85;;;9.10;99.90;;;;;;5027273;28;20108;-88
2024/02/24 00:51:14;;;;;;;6.57;3.85;;;9.10;99.90;;;;;;5027101;28;20099;-90
2024/02/24 00:53:40;;;;;;;8.95;3.90;;;9.10;99.90;;;;;;5032591;28;20060;-88
2024/02/24 00:56:06;;;;;;;11.07;4.50;;;9.10;99.90;;;;;;5026246;28;20014;-89
2024/02/24 00:58:31;;;;;;;11.32;4.20;;;9.10;99.90;;;;;;5016813;28;20472;-90
2024/02/24 01:00:57;;;;;;;9.68;3.97;;;9.10;99.90;;;;;;5034202;28;20097;-89
2024/02/24 01:03:22;;;;;;;9.35;4.35;;;9.10;99.90;;;;;;5026020;28;20021;-90
2024/02/24 01:05:48;;;;;;;6.20;3.40;;;9.10;99.90;;;;;;5032574;28;20021;-90
2024/02/24 01:08:13;;;;;;;6.60;3.22;;;9.10;99.90;;;;;;5024867;28;20026;-89
2024/02/24 01:10:39;;;;;;;7.88;4.00;;;9.10;99.90;;;;;;5023078;28;20491;-90
2024/02/24 01:13:05;;;;;;;6.85;3.47;;;9.10;99.90;;;;;;5021383;28;20026;-90
2024/02/24 01:15:32;;;;;;;11.05;4.10;;;9.10;99.90;;;;;;5022103;28;20080;-90
2024/02/24 01:17:57;;;;;;;8.82;3.85;;;9.10;99.90;;;;;;5030112;28;20407;-91
2024/02/24 01:20:25;;;;;;;6.55;3.53;;;9.10;99.90;;;;;;5024514;28;20052;-90
2024/02/24 01:22:53;;;;;;;10.23;3.75;;;9.10;99.90;;;;;;5023370;28;20025;-90
2024/02/24 01:25:20;;;;;;;7.68;3.58;;;9.10;99.90;;;;;;5023304;28;20098;-90
2024/02/24 01:27:45;;;;;;;9.07;3.58;;;9.10;99.90;;;;;;5029688;28;20022;-87
2024/02/24 01:30:11;;;;;;;15.25;3.30;;;9.00;99.90;;;;;;5033103;28;20043;-89
2024/02/24 01:32:37;;;;;;;7.25;3.50;;;9.10;99.90;;;;;;5027468;28;20488;-90
2024/02/24 01:35:02;;;;;;;5.95;3.33;;;9.10;99.90;;;;;;5030285;28;20024;-88
2024/02/24 01:37:28;;;;;;;13.63;3.97;;;9.10;99.90;;;;;;5020568;28;20104;-89
2024/02/24 01:39:54;;;;;;;12.02;3.53;;;9.10;99.90;;;;;;5022915;28;20479;-88
2024/02/24 01:42:19;;;;;;;8.63;3.35;;;9.10;99.90;;;;;;5023679;28;20392;-88
2024/02/24 01:44:45;;;;;;;7.38;3.17;;;9.10;99.90;;;;;;5024209;28;20431;-88
2024/02/24 01:47:11;;;;;;;5.75;2.97;;;9.00;99.90;;;;;;5022413;28;20030;-88
2024/02/24 01:49:38;;;;;;;6.35;3.28;;;9.00;99.90;;;;;;5026805;28;20034;-87
2024/02/24 01:52:05;;;;;;;9.18;4.22;;;9.10;99.90;;;;;;5026999;28;20032;-88
2024/02/24 01:54:32;;;;;;;9.18;4.15;;;9.00;99.90;;;;;;5023552;28;20038;-88
2024/02/24 01:56:57;;;;;;;7.40;3.90;;;9.00;99.90;;;;;;5020096;28;20021;-88
2024/02/24 01:59:24;;;;;;;8.48;3.70;;;9.00;99.90;;;;;;5022629;28;20021;-88
2024/02/24 02:01:50;;;;;;;6.38;4.03;;;9.00;99.90;;;;;;5024517;28;20018;-87
2024/02/24 02:04:16;;;;;;;8.15;4.22;;;9.00;99.90;;;;;;5022702;28;20022;-88
2024/02/24 02:06:41;;;;;;;6.93;3.95;;;9.00;99.90;;;;;;5025402;28;20030;-87
2024/02/24 02:09:07;;;;;;;6.78;3.30;;;9.00;99.90;;;;;;5022902;28;20049;-87
2024/02/24 02:11:33;;;;;;;7.53;3.85;;;9.00;99.90;;;;;;5022675;28;20399;-88
2024/02/24 02:13:58;;;;;;;7.78;4.20;;;9.00;99.90;;;;;;5017467;28;20083;-88
2024/02/24 02:16:24;;;;;;;6.10;3.95;;;9.00;99.90;;;;;;5026574;28;20077;-88
2024/02/24 02:18:49;;;;;;;10.85;4.07;;;9.10;99.90;;;;;;5019403;28;20025;-88
2024/02/24 02:21:15;;;;;;;5.70;3.70;;;9.00;99.90;;;;;;5022421;28;20048;-87
2024/02/24 02:23:41;;;;;;;8.38;4.40;;;9.00;99.90;;;;;;5021551;28;20033;-88
2024/02/24 02:26:07;;;;;;;6.15;3.72;;;9.00;99.90;;;;;;5025578;28;20056;-88
2024/02/24 02:28:32;;;;;;;6.10;3.88;;;9.00;99.90;;;;;;5020976;28;20110;-87
2024/02/24 02:31:00;;;;;;;14.48;4.90;;;9.00;99.90;;;;;;5021447;28;20028;-87
2024/02/24 02:33:25;;;;;;;8.70;3.83;;;9.00;99.90;;;;;;5027889;28;20079;-88
2024/02/24 02:35:51;;;;;;;11.13;4.55;;;9.00;99.90;;;;;;5024799;28;20475;-87
2024/02/24 02:38:16;;;;;;;7.43;4.13;;;9.00;99.90;;;;;;5026660;28;20482;-88
2024/02/24 02:40:42;;;;;;;7.90;4.35;;;9.00;99.90;;;;;;5021512;28;20017;-88
2024/02/24 02:43:08;;;;;;;9.48;4.20;;;9.00;99.90;;;;;;5019725;28;20025;-88
2024/02/24 02:45:33;;;;;;;9.52;4.15;;;9.00;99.90;;;;;;5024452;28;20054;-87
2024/02/24 02:47:59;;;;;;;8.02;4.20;;;9.00;99.90;;;;;;5026875;28;20022;-88
2024/02/24 02:50:24;;;;;;;12.05;4.43;;;9.00;99.90;;;;;;5029957;28;20026;-88
2024/02/24 02:52:50;;;;;;;10.25;4.75;;;9.00;99.90;;;;;;5020954;28;20045;-88
2024/02/24 02:55:17;;;;;;;8.77;4.28;;;9.00;99.90;;;;;;5026621;28;20025;-88
2024/02/24 02:57:43;;;;;;;9.38;4.53;;;9.00;99.90;;;;;;5024663;28;20040;-87
2024/02/24 03:00:10;;;;;;;10.65;4.57;;;9.00;99.90;;;;;;5028170;28;20022;-87
2024/02/24 03:02:36;;;;;;;7.80;4.00;;;9.00;99.90;;;;;;5023625;28;20492;-88
2024/02/24 03:05:01;;;;;;;6.05;3.47;;;9.00;99.90;;;;;;5025442;28;20079;-90
2024/02/24 03:07:28;;;;;;;8.98;4.38;;;9.00;99.90;;;;;;5023639;28;20020;-88
2024/02/24 03:09:54;;;;;;;10.00;4.22;;;9.00;99.90;;;;;;5031856;28;20079;-88
2024/02/24 03:12:19;;;;;;;8.25;4.32;;;9.00;99.90;;;;;;5028911;28;20053;-90
2024/02/24 03:14:45;;;;;;;7.88;4.10;;;9.00;99.90;;;;;;5015607;28;20116;-90
2024/02/24 03:17:10;;;;;;;5.22;3.38;;;9.00;99.90;;;;;;5022528;28;20426;-90
2024/02/24 03:19:38;;;;;;;6.53;3.35;;;9.00;99.90;;;;;;5032192;28;20013;-89
2024/02/24 03:22:04;;;;;;;7.25;3.33;;;9.00;99.90;;;;;;5028197;28;20083;-89
2024/02/24 03:24:30;;;;;;;6.90;3.85;;;9.00;99.90;;;;;;5021128;28;20022;-87
2024/02/24 03:26:55;;;;;;;5.40;3.38;;;9.00;99.90;;;;;;5027177;28;20034;-89
2024/02/24 03:29:21;;;;;;;14.77;4.00;;;9.00;99.90;;;;;;5024178;28;20024;-89
2024/02/24 03:31:46;;;;;;;9.57;3.63;;;9.00;99.90;;;;;;5026305;28;20038;-89
2024/02/24 03:34:12;;;;;;;5.90;3.83;;;9.00;99.90;;;;;;5027904;28;20026;-90
2024/02/24 03:36:37;;;;;;;5.07;3.65;;;9.00;99.90;;;;;;5030193;28;20013;-89
2024/02/24 03:39:03;;;;;;;6.05;3.65;;;9.00;99.90;;;;;;5031242;28;20013;-88
2024/02/24 03:41:32;;;;;;;9.95;4.15;;;8.90;99.90;;;;;;5023485;28;20029;-90
2024/02/24 03:43:58;;;;;;;8.45;4.20;;;9.00;99.90;;;;;;5030072;28;20033;-90
2024/02/24 03:46:24;;;;;;;7.40;3.70;;;9.00;99.90;;;;;;5024052;28;20084;-88
2024/02/24 03:48:50;;;;;;;6.93;4.00;;;9.00;99.90;;;;;;5024868;28;20026;-89
2024/02/24 03:51:16;;;;;;;8.77;3.88;;;9.00;99.90;;;;;;5017335;28;20522;-88
2024/02/24 03:53:42;;;;;;;5.32;3.72;;;9.00;99.90;;;;;;5019231;28;20021;-86
2024/02/24 03:56:07;;;;;;;6.80;3.70;;;9.00;99.90;;;;;;5018773;28;20025;-87
2024/02/24 03:58:33;;;;;;;4.82;3.45;;;9.00;99.90;;;;;;5030034;28;20109;-88
2024/02/24 04:00:58;;;;;;;5.70;3.65;;;9.00;99.90;;;;;;5028405;28;20021;-88
2024/02/24 04:03:24;;;;;;;5.38;3.28;;;9.00;99.90;;;;;;5017497;28;20476;-88
2024/02/24 04:05:50;;;;;;;9.70;4.15;;;9.00;99.90;;;;;;5029479;28;20029;-88
2024/02/24 04:08:15;;;;;;;8.70;3.70;;;8.90;99.90;;;;;;5015854;28;20023;-88
2024/02/24 04:10:43;;;;;;;5.47;3.35;;;9.00;99.90;;;;;;5021551;28;20022;-88
2024/02/24 04:13:08;;;;;;;9.30;3.53;;;9.00;99.90;;;;;;5014009;28;20085;-87
2024/02/24 04:15:34;;;;;;;7.43;4.18;;;9.00;99.90;;;;;;5020672;28;20048;-88
2024/02/24 04:17:59;;;;;;;7.47;3.75;;;9.00;99.90;;;;;;5017646;28;20745;-87
2024/02/24 04:20:25;;;;;;;7.93;3.72;;;8.90;99.90;;;;;;5023784;28;20512;-88
2024/02/24 04:22:51;;;;;;;6.22;3.58;;;9.00;99.90;;;;;;5026400;28;20029;-87
2024/02/24 04:25:16;;;;;;;6.65;3.80;;;9.00;99.90;;;;;;5027130;28;20063;-87
2024/02/24 04:27:42;;;;;;;8.07;3.55;;;8.90;99.90;;;;;;5024467;28;20115;-88
2024/02/24 04:30:07;;;;;;;6.43;3.90;;;8.90;99.90;;;;;;5027571;28;20017;-89
2024/02/24 04:32:33;;;;;;;7.00;3.97;;;8.90;99.90;;;;;;5021261;28;20022;-88
2024/02/24 04:34:58;;;;;;;7.20;3.40;;;8.90;99.90;;;;;;5025463;28;20034;-88
2024/02/24 04:37:24;;;;;;;9.77;4.10;;;9.00;99.90;;;;;;5029736;28;20017;-88
2024/02/24 04:39:50;;;;;;;6.28;3.65;;;9.00;99.90;;;;;;5026414;28;20026;-88
2024/02/24 04:42:15;;;;;;;6.97;3.83;;;8.90;99.90;;;;;;5022303;28;20018;-88
2024/02/24 04:44:41;;;;;;;5.68;3.83;;;8.90;99.90;;;;;;5024479;28;20431;-87
2024/02/24 04:47:06;;;;;;;5.07;3.88;;;8.90;99.90;;;;;;5027324;28;20033;-88
2024/02/24 04:49:32;;;;;;;6.53;3.63;;;8.90;99.90;;;;;;5029141;28;20068;-87
2024/02/24 04:51:58;;;;;;;6.95;3.80;;;8.90;99.90;;;;;;5024911;28;20022;-88
2024/02/24 04:54:24;;;;;;;7.22;3.78;;;8.90;99.90;;;;;;5020277;28;20049;-88
2024/02/24 04:56:49;;;;;;;5.28;3.60;;;8.90;99.90;;;;;;5025063;28;20108;-88
2024/02/24 04:59:16;;;;;;;6.15;3.92;;;8.90;99.90;;;;;;5028719;28;20125;-89
2024/02/24 05:01:42;;;;;;;7.05;3.63;;;8.90;99.90;;;;;;5025339;28;20033;-88
2024/02/24 05:04:08;;;;;;;7.35;4.15;;;8.90;99.90;;;;;;5021415;28;21156;-88
2024/02/24 05:06:33;;;;;;;6.00;3.90;;;8.90;99.90;;;;;;5023649;28;20101;-88
2024/02/24 05:08:59;;;;;;;8.73;3.60;;;8.90;99.90;;;;;;5015512;28;20029;-88
2024/02/24 05:11:24;;;;;;;9.73;3.85;;;8.90;99.90;;;;;;5018277;28;20082;-89
2024/02/24 05:13:50;;;;;;;7.70;3.95;;;8.90;99.90;;;;;;5029069;28;20562;-88
2024/02/24 05:16:16;;;;;;;5.45;3.85;;;8.90;99.90;;;;;;5024473;28;20018;-88
2024/02/24 05:18:41;;;;;;;9.05;4.18;;;8.90;99.90;;;;;;5015290;28;20387;-88
2024/02/24 05:21:07;;;;;;;5.63;3.65;;;8.90;99.90;;;;;;5028165;28;20101;-88
2024/02/24 05:23:32;;;;;;;6.07;3.58;;;8.90;99.90;;;;;;5020252;28;20022;-88
2024/02/24 05:25:58;;;;;;;8.80;4.18;;;8.90;99.90;;;;;;5025101;28;20025;-87
2024/02/24 05:28:24;;;;;;;5.43;3.60;;;8.90;99.90;;;;;;5022741;28;20022;-88
2024/02/24 05:30:49;;;;;;;6.38;3.75;;;8.90;99.90;;;;;;5019341;28;20018;-88
2024/02/24 05:33:15;;;;;;;7.90;3.53;;;8.90;99.90;;;;;;5021824;28;20562;-88
2024/02/24 05:35:41;;;;;;;5.47;3.80;;;8.90;99.90;;;;;;5023539;28;20033;-87
2024/02/24 05:38:06;;;;;;;8.68;3.85;;;8.90;99.90;;;;;;5023093;28;20057;-87
2024/02/24 05:40:32;;;;;;;6.28;3.60;;;8.90;99.90;;;;;;5021030;28;20014;-88
2024/02/24 05:42:58;;;;;;;6.15;3.50;;;8.90;99.90;;;;;;5029061;28;20021;-88
2024/02/24 05:45:23;;;;;;;6.95;4.00;;;8.90;99.90;;;;;;5025631;28;20403;-88
2024/02/24 05:47:49;;;;;;;5.90;3.72;;;8.90;99.90;;;;;;5023604;28;20057;-87
2024/02/24 05:50:14;;;;;;;5.32;3.40;;;8.90;99.90;;;;;;5028800;28;20021;-88
2024/02/24 05:52:40;;;;;;;10.63;4.57;;;8.90;99.90;;;;;;5023825;28;20033;-88
2024/02/24 05:55:09;;;;;;;6.75;3.38;;;8.90;99.90;;;;;;5022350;28;20018;-87
2024/02/24 05:57:35;;;;;;;8.70;3.60;;;8.90;99.90;;;;;;5027276;28;20170;-88
2024/02/24 06:00:04;;;;;;;5.03;3.63;;;8.90;99.90;;;;;;5019385;28;20511;-88
2024/02/24 06:02:29;;;;;;;6.43;3.90;;;8.90;99.90;;;;;;5028323;28;20656;-87
2024/02/24 06:04:55;;;;;;;4.40;3.13;;;8.90;99.90;;;;;;5024761;28;20103;-88
2024/02/24 06:07:20;;;;;;;6.45;3.20;;;8.90;99.90;;;;;;5028911;28;20052;-87
2024/02/24 06:09:46;;;;;;;5.90;3.33;;;8.90;99.90;;;;;;5021444;28;20365;-89
2024/02/24 06:12:11;;;;;;;5.78;3.50;;;8.90;99.90;;;;;;5022113;28;20388;-88
2024/02/24 06:14:37;;;;;;;5.68;3.45;;;8.90;99.90;;;;;;5030924;28;20018;-89
2024/02/24 06:17:03;;;;;;;7.57;3.72;;;8.80;99.90;;;;;;5021799;28;20072;-87
2024/02/24 06:19:28;;;;;;;5.00;3.42;;;8.80;99.90;;;;;;5025561;28;20021;-88
2024/02/24 06:21:54;;;;;;;8.70;3.70;;;8.80;99.90;;;;;;5025003;28;20439;-88
2024/02/24 06:24:20;;;;;;;7.70;3.70;;;8.80;99.90;;;;;;5024529;28;20638;-88
2024/02/24 06:26:45;;;;;;;5.00;2.75;;;8.80;99.90;;;;;;5017395;28;20084;-88
2024/02/24 06:29:15;;;;;;;7.25;3.45;;;8.80;99.90;;;;;;5031586;28;20025;-88
2024/02/24 06:31:41;;;;;;;6.95;4.22;;;8.80;99.90;;;;;;5025186;28;20030;-88
2024/02/24 06:34:07;;;;;;;5.10;3.35;;;8.80;99.90;;;;;;5025467;28;20107;-88
2024/02/24 06:36:32;;;;;;;9.43;3.35;;;8.80;99.90;;;;;;5027260;28;20021;-88
2024/02/24 06:38:58;;;;;;;6.75;4.00;;;8.80;99.90;;;;;;5022902;28;20025;-88
2024/02/24 06:41:23;;;;;;;5.60;3.10;;;8.90;99.90;;;;;;5020936;28;20014;-87
2024/02/24 06:43:52;;;;;;;9.77;4.00;;;8.80;99.90;;;;;;5023919;28;20487;-87
2024/02/24 06:46:18;;;;;;;7.82;3.72;;;8.90;99.90;;;;;;5025582;28;20021;-88
2024/02/24 06:48:45;;;;;;;12.95;4.28;;;8.90;99.90;;;;;;5019614;28;20029;-88
2024/02/24 06:51:11;;;;;;;7.72;3.95;;;8.90;99.90;;;;;;5019125;28;20022;-88
2024/02/24 06:53:37;;;;;;;8.02;4.45;;;8.90;99.90;;;;;;5027587;28;20030;-88
2024/02/24 06:56:10;;;;;;;8.88;3.78;;;8.90;99.90;;;;;;5026118;28;20033;-89
2024/02/24 06:58:36;;;;;;;8.57;4.20;;;8.90;99.90;;;;;;5029704;28;20063;-89
2024/02/24 07:01:03;;;;;;;5.50;3.75;;;8.90;99.90;;;;;;5018399;28;20028;-88
2024/02/24 07:03:32;;;;;;;7.00;3.70;;;8.90;99.90;;;;;;5026077;28;20104;-87
2024/02/24 07:06:01;;;;;;;9.85;4.53;;;8.90;99.90;;;;;;5025686;28;20168;-88
2024/02/24 07:08:27;;;;;;;8.43;3.92;;;8.90;99.90;;;;;;5021019;28;20096;-88
2024/02/24 07:10:53;;;;;;;5.63;3.95;;;8.90;99.90;;;;;;5025823;28;20057;-88
2024/02/24 07:13:18;;;;;;;7.07;4.03;;;8.90;99.90;;;;;;5031653;28;20476;-87
2024/02/24 07:15:44;;;;;;;8.73;4.35;;;8.90;99.90;;;;;;5027839;28;20067;-88
2024/02/24 07:18:09;;;;;;;8.35;4.20;;;8.90;99.90;;;;;;5017409;28;20550;-88
2024/02/24 07:20:35;;;;;;;4.82;3.33;;;9.00;99.90;;;;;;5020805;28;20025;-88
2024/02/24 07:23:00;;;;;;;9.00;4.43;;;8.90;99.90;;;;;;5022911;28;20032;-87
2024/02/24 07:25:26;;;;;;;6.32;3.63;;;8.90;99.90;;;;;;5023008;28;20026;-89
2024/02/24 07:27:51;;;;;;;9.45;4.15;;;9.00;99.90;;;;;;5020245;28;20034;-88
2024/02/24 07:30:17;;;;;;;6.55;4.20;;;8.90;99.90;;;;;;5014152;28;20072;-88
2024/02/24 07:32:42;;;;;;;5.82;3.67;;;8.90;99.90;;;;;;5021674;28;20029;-88
2024/02/24 07:35:08;;;;;;;7.13;4.05;;;8.90;99.90;;;;;;5023575;28;20499;-88
2024/02/24 07:37:34;;;;;;;9.35;3.97;;;8.90;99.90;;;;;;5022872;28;20499;-88
2024/02/24 07:39:59;;;;;;;5.85;3.70;;;8.90;99.90;;;;;;5016425;28;20034;-88
2024/02/24 07:42:25;;;;;;;7.20;4.03;;;8.90;99.90;;;;;;5015597;28;20049;-89
2024/02/24 07:44:51;;;;;;;8.80;4.32;;;9.00;99.90;;;;;;5015655;28;20034;-87
2024/02/24 07:47:17;;;;;;;5.78;4.20;;;8.90;99.90;;;;;;5021348;28;20021;-88
2024/02/24 07:49:43;;;;;;;7.03;4.22;;;8.90;99.90;;;;;;5021389;28;20022;-88
2024/02/24 07:52:09;;;;;;;6.18;3.65;;;8.90;99.90;;;;;;5024249;28;20036;-87
2024/02/24 07:54:34;;;;;;;6.75;3.50;;;9.00;99.90;;;;;;5010995;28;20184;-88
2024/02/24 07:57:00;;;;;;;6.35;3.67;;;8.90;99.90;;;;;;5019289;28;20030;-89
2024/02/24 07:59:25;;;;;;;5.03;3.80;;;9.00;99.90;;;;;;5023115;28;20018;-88
2024/02/24 08:01:51;;;;;;;5.13;3.47;;;9.00;99.90;;;;;;5020492;28;20036;-88
2024/02/24 08:04:16;;;;;;;8.20;3.65;;;9.00;99.90;;;;;;5027328;28;20022;-88
2024/02/24 08:06:42;;;;;;;7.72;4.15;;;9.10;99.90;;;;;;5017131;28;20025;-89
2024/02/24 08:09:08;;;;;;;7.75;4.00;;;9.10;99.90;;;;;;5025797;28;20030;-89
2024/02/24 08:11:39;;;;;;;6.68;3.60;;;9.10;99.90;;;;;;5023450;28;20045;-88
2024/02/24 08:14:09;;;;;;;5.18;3.28;;;9.10;99.90;;;;;;5025960;28;20026;-88
2024/02/24 08:16:35;;;;;;;4.82;3.22;;;9.10;99.90;;;;;;5018665;28;20040;-88
2024/02/24 08:19:01;;;;;;;8.05;3.70;;;9.10;99.90;;;;;;5024625;28;20025;-88
2024/02/24 08:21:28;;;;;;;5.05;3.03;;;9.10;99.90;;;;;;5029013;28;20079;-88
2024/02/24 08:23:54;;;;;;;7.55;3.50;;;9.10;99.90;;;;;;5022759;28;20090;-89
2024/02/24 08:26:19;;;;;;;6.97;3.38;;;9.20;99.90;;;;;;5021188;28;20484;-88
2024/02/24 08:28:45;;;;;;;6.57;3.33;;;9.20;99.90;;;;;;5018815;28;20018;-89
2024/02/24 08:31:10;;;;;;;6.82;3.72;;;9.20;99.90;;;;;;5025786;28;20153;-88
2024/02/24 08:33:36;;;;;;;6.57;3.78;;;9.20;99.90;;;;;;5024975;28;20017;-88
2024/02/24 08:36:02;;;;;;;6.43;3.97;;;9.20;99.90;;;;;;5028509;28;20407;-89
2024/02/24 08:38:27;;;;;;;4.45;3.38;;;9.20;99.90;;;;;;5023182;28;20396;-87
2024/02/24 08:40:54;;;;;;;5.40;3.42;;;9.20;99.90;;;;;;5022797;28;20479;-88
2024/02/24 08:43:19;;;;;;;4.32;3.15;;;9.20;99.90;;;;;;5023341;28;20021;-89
2024/02/24 08:45:45;;;;;;;4.18;2.92;;;9.30;99.90;;;;;;5027978;28;20080;-89
2024/02/24 08:48:12;;;;;;;6.50;3.38;;;9.30;99.90;;;;;;5024447;28;20030;-88
2024/02/24 08:50:39;;;;;;;4.03;3.25;;;9.30;99.90;;;;;;5022861;28;20121;-87
2024/02/24 08:53:04;;;;;;;6.00;3.50;;;9.20;99.90;;;;;;5023216;28;20484;-89
2024/02/24 08:55:30;;;;;;;4.80;3.10;;;9.30;99.90;;;;;;5024431;28;20029;-88
2024/02/24 08:57:55;;;;;;;6.72;3.40;;;9.30;99.90;;;;;;5026435;28;20033;-88
2024/02/24 09:00:21;;;;;;;5.55;3.13;;;9.30;99.90;;;;;;5025125;28;20057;-89
2024/02/24 09:02:47;;;;;;;5.47;2.83;;;9.40;99.90;;;;;;5027592;28;20683;-88
2024/02/24 09:05:13;;;;;;;3.83;2.90;;;9.50;99.90;;;;;;5027527;28;20053;-89
2024/02/24 09:07:39;;;;;;;4.82;2.90;;;9.50;99.90;;;;;;5032132;28;20052;-88
2024/02/24 09:10:05;;;;;;;4.25;2.85;;;9.60;99.90;;;;;;5022387;28;20072;-88
2024/02/24 09:12:30;;;;;;;3.45;3.00;;;9.70;99.90;;;;;;5020982;28;20030;-87
2024/02/24 09:14:56;;;;;;;4.65;3.17;;;9.70;99.90;;;;;;5025131;28;20396;-89
2024/02/24 09:17:21;;;;;;;4.63;2.50;;;9.80;99.90;;;;;;5025407;28;20570;-89
2024/02/24 09:19:47;;;;;;;3.63;2.33;;;9.90;99.90;;;;;;5019553;28;21029;-88
2024/02/24 09:22:12;;;;;;;4.43;2.50;;;10.10;99.90;;;;;;5022463;28;20021;-88
2024/02/24 09:24:38;;;;;;;3.75;2.40;;;10.30;99.90;;;;;;5029288;28;20025;-88
2024/02/24 09:27:04;;;;;;;3.67;2.28;;;10.30;99.90;;;;;;5022400;28;20361;-88
2024/02/24 09:29:29;;;;;;;2.85;2.13;;;10.40;99.90;;;;;;5022578;28;20053;-88
2024/02/24 09:31:55;;;;;;;5.05;2.33;;;10.70;99.90;;;;;;5031974;28;20635;-90
2024/02/24 09:34:20;;;;;;;2.60;2.10;;;10.80;99.90;;;;;;5021539;28;20586;-88
2024/02/24 09:36:46;;;;;;;5.20;2.47;;;10.90;99.90;;;;;;5024860;28;20006;-88
2024/02/24 09:39:13;;;;;;;4.25;2.20;;;10.90;99.90;;;;;;5025761;28;20018;-88
2024/02/24 09:41:39;;;;;;;4.03;2.00;;;11.00;99.90;;;;;;5028882;28;20041;-87
2024/02/24 09:44:05;;;;;;;4.20;2.17;;;11.10;99.90;;;;;;5029990;28;20037;-88
2024/02/24 09:46:33;;;;;;;2.90;2.15;;;11.10;99.90;;;;;;5015227;28;20025;-87
2024/02/24 09:48:59;;;;;;;3.22;2.10;;;11.10;99.90;;;;;;5021234;28;20018;-89
2024/02/24 09:51:27;;;;;;;2.70;1.80;;;11.10;99.90;;;;;;5013611;28;20094;-88
2024/02/24 09:53:52;;;;;;;3.05;2.13;;;11.30;99.90;;;;;;5028126;28;20025;-88
2024/02/24 09:56:22;;;;;;;3.67;1.67;;;11.40;99.90;;;;;;5032585;28;20368;-88
2024/02/24 09:58:49;;;;;;;2.15;1.50;;;11.40;99.90;;;;;;5026241;28;20068;-88
2024/02/24 10:01:15;;;;;;;4.15;1.85;;;11.50;99.90;;;;;;5031125;28;20075;-88
2024/02/24 10:03:42;;;;;;;8.48;2.33;;;11.70;99.90;;;;;;5026556;28;20017;-89
2024/02/24 10:06:11;;;;;;;3.15;1.60;;;11.80;99.90;;;;;;5030479;28;20021;-88
2024/02/24 10:08:38;;;;;;;2.25;1.55;;;11.90;99.90;;;;;;5029416;28;20013;-88
2024/02/24 10:11:04;;;;;;;3.60;1.40;;;11.80;99.90;;;;;;5021683;28;20017;-88
2024/02/24 10:13:35;;;;;;;2.97;1.60;;;11.70;99.90;;;;;;5026758;28;20032;-87
2024/02/24 10:16:06;;;;;;;4.03;1.38;;;11.60;99.90;;;;;;5021017;28;20053;-88
2024/02/24 10:18:32;;;;;;;2.80;1.60;;;11.60;99.90;;;;;;5021085;28;20022;-88
2024/02/24 10:20:58;;;;;;;1.15;1.05;;;11.70;99.90;;;;;;5020936;28;20051;-88
2024/02/24 10:23:24;;;;;;;2.83;1.45;;;11.70;99.90;;;;;;5020322;28;20024;-88
2024/02/24 10:25:49;;;;;;;0.98;0.98;;;11.70;99.90;;;;;;5012386;28;20053;-89
2024/02/24 10:28:16;;;;;;;2.25;1.33;;;11.70;99.90;;;;;;5020656;28;20052;-88
2024/02/24 10:30:42;;;;;;;1.17;1.05;;;11.90;99.90;;;;;;5024808;28;20029;-89
2024/02/24 10:33:09;;;;;;;1.30;0.93;;;12.00;99.90;;;;;;5024047;28;20029;-87
2024/02/24 10:35:34;;;;;;;1.20;1.10;;;12.10;99.90;;;;;;5019164;28;20026;-88
2024/02/24 10:38:01;;;;;;;1.05;0.95;;;12.10;99.90;;;;;;5021113;28;20392;-88
2024/02/24 10:40:27;;;;;;;0.80;0.80;;;12.10;99.90;;;;;;5020753;28;20029;-88
2024/02/24 10:42:54;;;;;;;2.08;0.85;;;12.30;99.90;;;;;;5029045;28;20029;-87
2024/02/24 10:45:20;;;;;;;1.40;0.90;;;12.50;99.90;;;;;;5016828;28;20037;-89
2024/02/24 10:47:46;;;;;;;2.92;1.38;;;12.60;99.90;;;;;;5019018;28;20060;-88
2024/02/24 10:50:11;;;;;;;4.35;1.88;;;12.60;99.90;;;;;;5019289;28;20033;-88
2024/02/24 10:52:37;;;;;;;6.07;1.67;;;12.80;99.90;;;;;;5021763;28;20022;-89
2024/02/24 10:55:05;;;;;;;1.25;1.10;;;12.80;99.90;;;;;;5026048;28;20497;-88
2024/02/24 10:57:32;;;;;;;1.48;1.20;;;12.90;99.90;;;;;;5022176;28;20034;-89
2024/02/24 10:59:59;;;;;;;0.70;0.70;;;12.80;99.90;;;;;;5027970;28;20656;-89
2024/02/24 11:02:26;;;;;;;1.10;1.00;;;12.80;99.90;;;;;;5022013;28;20037;-89
2024/02/24 11:04:52;;;;;;;1.25;0.80;;;13.00;99.90;;;;;;5022700;28;20033;-88
2024/02/24 11:07:22;;;;;;;2.17;1.05;;;13.10;99.90;;;;;;5029635;28;20500;-87
2024/02/24 11:09:51;;;;;;;1.83;1.40;;;13.00;99.90;;;;;;5021434;28;20033;-89
2024/02/24 11:12:20;;;;;;;5.55;1.88;;;12.90;99.90;;;;;;5026682;28;20029;-89
2024/02/24 11:14:50;;;;;;;3.83;1.50;;;12.90;99.90;;;;;;5015728;28;20116;-89
2024/02/24 11:17:55;;;;;;;2.08;1.13;;;13.10;99.90;;;;;;5024020;28;20484;-89
2024/02/24 11:20:39;;;;;;;1.63;0.98;;;13.20;99.90;;;;;;5030302;28;20036;-88
2024/02/24 11:23:24;;;;;;;1.30;1.00;;;12.90;99.90;;;;;;5025278;28;20443;-87
2024/02/24 11:26:09;;;;;;;1.30;1.20;;;12.70;99.90;;;;;;5024152;28;20021;-87
2024/02/24 11:28:35;;;;;;;3.63;1.02;;;12.40;99.90;;;;;;5028001;28;20049;-87
2024/02/24 11:31:02;;;;;;;1.95;0.98;;;12.40;99.90;;;;;;5023105;28;20033;-88
2024/02/24 11:33:30;;;;;;;1.23;1.00;;;12.60;99.90;;;;;;5020216;28;20064;-88
2024/02/24 11:35:56;;;;;;;5.13;1.48;;;12.80;99.90;;;;;;5030480;28;20037;-89
2024/02/24 11:38:24;;;;;;;2.38;1.55;;;13.10;99.90;;;;;;5020153;28;20018;-90
2024/02/24 11:40:50;;;;;;;0.90;0.88;;;13.20;99.90;;;;;;5023770;28;20025;-89
2024/02/24 11:43:16;;;;;;;1.95;1.13;;;13.20;99.90;;;;;;5020340;28;20054;-88
2024/02/24 11:45:53;;;;;;;2.80;1.58;;;13.30;99.90;;;;;;5018498;28;20033;-88
2024/02/24 11:48:19;;;;;;;6.82;1.45;;;13.00;99.90;;;;;;5026228;28;20017;-88
2024/02/24 11:50:46;;;;;;;1.73;1.23;;;12.80;99.90;;;;;;5017172;28;20089;-89
2024/02/24 11:53:16;;;;;;;1.90;1.02;;;12.80;99.90;;;;;;5018384;28;20026;-89
2024/02/24 11:55:42;;;;;;;;;;;12.90;99.90;;;;;;5018524;28;20132;-88
2024/02/24 11:58:08;;;;;;;1.75;1.20;;;12.90;99.90;;;;;;5027117;28;19948;-88
2024/02/24 12:00:38;;;;;;;0.95;0.80;;;13.00;99.90;;;;;;5021670;28;20534;-88
2024/02/24 12:03:04;;;;;;;2.90;0.85;;;12.80;99.90;;;;;;5020667;28;20072;-88
2024/02/24 12:05:30;;;;;;;1.83;0.82;;;12.80;99.90;;;;;;5021210;28;20030;-87
2024/02/24 12:08:04;;;;;;;2.45;0.90;;;12.80;99.90;;;;;;5014921;28;20157;-89
2024/02/24 12:10:36;;;;;;;1.27;0.90;;;12.70;99.90;;;;;;5026918;28;20022;-88
2024/02/24 12:13:09;;;;;;;2.03;0.82;;;12.60;99.90;;;;;;5027428;28;20026;-88
2024/02/24 12:15:40;;;;;;;0.63;0.60;;;12.40;99.90;;;;;;5021001;28;20022;-89
2024/02/24 12:18:06;;;;;;;4.28;1.02;;;12.30;99.90;;;;;;5022213;28;20021;-88
2024/02/24 12:20:35;;;;;;;2.22;1.00;;;12.20;99.90;;;;;;5021862;28;20033;-88
2024/02/24 12:23:05;;;;;;;1.98;0.82;;;12.00;99.90;;;;;;5028188;28;20037;-87
2024/02/24 12:25:31;;;;;;;2.08;0.60;;;12.00;99.90;;;;;;5026729;28;20131;-88
2024/02/24 12:27:58;;;;;;;0.70;0.70;;;12.00;99.90;;;;;;5019898;28;20049;-89
2024/02/24 12:30:24;;;;;;;0.77;0.77;;;11.80;99.90;;;;;;5020831;28;20029;-89
2024/02/24 12:32:49;;;;;;;0.70;0.60;;;11.60;99.90;;;;;;5021254;28;20037;-89
2024/02/24 12:35:15;;;;;;;0.75;0.75;;;11.50;99.90;;;;;;5023429;28;20025;-88
2024/02/24 12:37:44;;;;;;;4.22;0.85;;;11.40;99.90;;;;;;5024431;28;20031;-88
2024/02/24 12:40:30;;;;;;;1.13;0.60;;;11.30;99.90;;;;;;5029744;28;20018;-89
2024/02/24 12:42:57;;;;;;;0.82;0.65;;;11.30;99.90;;;;;;5017170;28;20096;-88
2024/02/24 12:45:23;;;;;;;0.40;0.40;;;11.20;99.90;;;;;;5025403;28;20056;-89
2024/02/24 12:47:49;;;;;;;1.08;0.90;;;11.20;99.90;;;;;;5024251;28;20058;-89